Terminal Aerodrome Forecast
Issued by NWS

Home | Current Version | Previous Version | Text Only | Print | Product List | Glossary On
Versions: 1 2 3 4 5 6 7 8 9 10 11 12 13
000
FTUS45 KPSR 061140
TAFBLH
TAF
KBLH 061140Z 0612/0712 35006KT P6SM SKC
     FM061700 36013G25KT P6SM SKC
     FM070200 35008KT P6SM SKC=

USA.gov is the U.S. government's official web portal to all federal, state and local government web resources and services.